Time;durP1;ratioP1;P1;durP2;ratioP2;P2;SDS_P1;SDS_P2;PMS_P1;PMS_P2;Temp;Humidity;BMP_temperature;BMP_pressure;BME280_temperature;BME280_humidity;BME280_pressure;Samples;Min_cycle;Max_cycle;Signal;HPM_P1;HPM_P2
2023/01/04 00:01:13;;;;;;;21.50;17.75;;;;;;;;;;5006935;28;20050;-90
2023/01/04 00:03:40;;;;;;;17.83;14.85;;;;;;;;;;4993956;28;20058;-91
2023/01/04 00:06:10;;;;;;;17.92;16.00;;;;;;;;;;4974530;28;20508;-90
2023/01/04 00:08:37;;;;;;;23.00;15.68;;;;;;;;;;5008062;28;20507;-90
2023/01/04 00:11:07;;;;;;;24.85;15.98;;;;;;;;;;5008615;28;20046;-90
2023/01/04 00:13:35;;;;;;;19.52;16.08;;;;;;;;;;4991781;28;20062;-90
2023/01/04 00:16:05;;;;;;;48.92;19.10;;;;;;;;;;4992544;28;20050;-90
2023/01/04 00:18:34;;;;;;;24.33;17.75;;;;;;;;;;4993147;28;20381;-90
2023/01/04 00:21:08;;;;;;;28.75;16.88;;;;;;;;;;4989997;28;20046;-90
2023/01/04 00:23:36;;;;;;;63.97;25.52;;;;;;;;;;4992396;28;20051;-90
2023/01/04 00:26:07;;;;;;;45.80;22.88;;;;;;;;;;4992374;28;20051;-90
2023/01/04 00:28:34;;;;;;;29.00;19.70;;;;;;;;;;5007682;28;20042;-89
2023/01/04 00:31:03;;;;;;;20.67;16.23;;;;;;;;;;4990073;28;20338;-90
2023/01/04 00:33:31;;;;;;;25.23;17.65;;;;;;;;;;4991226;28;20050;-90
2023/01/04 00:36:04;;;;;;;31.38;16.92;;;;;;;;;;4991396;28;20046;-91
2023/01/04 00:38:32;;;;;;;32.13;17.45;;;;;;;;;;4993876;28;20034;-90
2023/01/04 00:40:59;;;;;;;22.13;17.38;;;;;;;;;;4994650;28;20416;-90
2023/01/04 00:43:27;;;;;;;20.15;16.90;;;;;;;;;;4994464;28;20057;-90
2023/01/04 00:45:55;;;;;;;27.23;18.00;;;;;;;;;;4994126;28;20077;-90
2023/01/04 00:48:22;;;;;;;26.70;18.25;;;;;;;;;;4993850;28;20493;-90
2023/01/04 00:50:50;;;;;;;24.85;17.45;;;;;;;;;;4994874;28;20481;-90
2023/01/04 00:53:19;;;;;;;18.50;15.40;;;;;;;;;;4973997;28;20042;-90
2023/01/04 00:55:47;;;;;;;21.48;15.95;;;;;;;;;;4992404;28;20523;-90
2023/01/04 00:58:15;;;;;;;21.83;17.10;;;;;;;;;;4989586;28;20050;-90
2023/01/04 01:00:42;;;;;;;21.30;18.80;;;;;;;;;;4992951;28;20054;-91
2023/01/04 01:03:09;;;;;;;18.23;15.48;;;;;;;;;;4989516;28;20045;-90
2023/01/04 01:05:37;;;;;;;20.02;15.30;;;;;;;;;;4985596;28;20070;-90
2023/01/04 01:10:47;;;;;;;19.63;15.43;;;;;;;;;;4991050;28;20046;-91
2023/01/04 01:13:15;;;;;;;19.40;16.95;;;;;;;;;;4991407;28;20492;-90
2023/01/04 01:15:43;;;;;;;18.75;15.57;;;;;;;;;;4991466;28;20416;-90
2023/01/04 01:18:10;;;;;;;18.70;16.85;;;;;;;;;;4989238;28;20058;-90
2023/01/04 01:20:42;;;;;;;17.95;15.38;;;;;;;;;;5004802;28;20055;-90
2023/01/04 01:23:11;;;;;;;19.52;17.05;;;;;;;;;;4990875;28;20046;-90
2023/01/04 01:25:38;;;;;;;19.55;15.18;;;;;;;;;;4986310;28;20046;-90
2023/01/04 01:28:08;;;;;;;36.28;18.85;;;;;;;;;;4988665;28;20058;-90
2023/01/04 01:30:39;;;;;;;36.45;17.05;;;;;;;;;;4991705;28;20666;-91
2023/01/04 01:33:07;;;;;;;45.50;21.23;;;;;;;;;;4992091;28;20057;-91
2023/01/04 01:35:35;;;;;;;37.00;18.45;;;;;;;;;;4989954;28;20507;-91
2023/01/04 01:38:03;;;;;;;38.75;19.02;;;;;;;;;;4984355;28;20046;-91
2023/01/04 01:40:30;;;;;;;23.42;16.25;;;;;;;;;;4992673;28;20496;-90
2023/01/04 01:42:58;;;;;;;30.85;19.35;;;;;;;;;;4992106;28;20038;-91
2023/01/04 01:45:30;;;;;;;33.22;18.15;;;;;;;;;;4990746;28;20057;-91
2023/01/04 01:48:01;;;;;;;31.05;17.98;;;;;;;;;;4986254;28;20053;-91
2023/01/04 01:50:33;;;;;;;39.13;21.30;;;;;;;;;;5004119;28;20041;-91
2023/01/04 01:53:01;;;;;;;41.45;18.90;;;;;;;;;;4980507;28;20043;-91
2023/01/04 01:55:30;;;;;;;33.83;22.35;;;;;;;;;;4971417;28;20050;-92
2023/01/04 01:57:58;;;;;;;35.47;22.42;;;;;;;;;;4986729;28;20074;-90
2023/01/04 02:00:26;;;;;;;33.33;20.73;;;;;;;;;;4990812;28;20046;-91
2023/01/04 02:03:00;;;;;;;32.00;21.58;;;;;;;;;;4990155;28;20054;-91
2023/01/04 02:05:28;;;;;;;36.80;19.42;;;;;;;;;;4973075;28;20051;-91
2023/01/04 02:07:55;;;;;;;37.63;18.85;;;;;;;;;;4991410;28;20062;-90
2023/01/04 02:10:24;;;;;;;39.17;19.50;;;;;;;;;;4988574;28;20065;-91
2023/01/04 02:12:52;;;;;;;28.20;17.58;;;;;;;;;;4984146;28;20051;-91
2023/01/04 02:15:21;;;;;;;25.02;17.45;;;;;;;;;;4996360;28;20126;-90
2023/01/04 02:17:54;;;;;;;34.42;19.90;;;;;;;;;;4989241;28;20394;-91
2023/01/04 02:20:31;;;;;;;22.73;14.70;;;;;;;;;;4985404;28;20485;-90
2023/01/04 02:23:27;;;;;;;21.52;14.57;;;;;;;;;;4969679;28;20505;-91
2023/01/04 02:26:29;;;;;;;28.88;16.48;;;;;;;;;;5006273;28;20053;-91
2023/01/04 02:29:11;;;;;;;22.75;16.73;;;;;;;;;;4957676;28;20126;-91
2023/01/04 02:31:42;;;;;;;19.02;15.30;;;;;;;;;;5001757;28;20039;-91
2023/01/04 02:34:17;;;;;;;25.85;17.63;;;;;;;;;;4990116;28;20042;-91
2023/01/04 02:36:52;;;;;;;30.63;16.10;;;;;;;;;;4990275;28;20050;-90
2023/01/04 02:39:30;;;;;;;39.63;18.13;;;;;;;;;;5006623;28;20043;-90
2023/01/04 02:42:01;;;;;;;32.33;19.88;;;;;;;;;;4986290;28;20062;-90
2023/01/04 02:50:29;;;;;;;48.47;24.90;;;;;;;;;;5003153;28;20496;-90
2023/01/04 02:50:31;;;;;;;43.15;21.70;;;;;;;;;;4988336;28;20046;-91
2023/01/04 02:53:01;;;;;;;44.40;20.40;;;;;;;;;;4985414;28;20054;-90
2023/01/04 02:55:35;;;;;;;63.50;21.15;;;;;;;;;;4985095;28;20046;-90
2023/01/04 02:58:07;;;;;;;39.47;20.40;;;;;;;;;;4982940;28;20058;-90
2023/01/04 03:06:14;;;;;;;41.85;21.70;;;;;;;;;;4987600;28;20061;-90
2023/01/04 03:06:33;;;;;;;57.92;23.00;;;;;;;;;;4990275;28;20058;-91
2023/01/04 03:09:05;;;;;;;25.08;19.10;;;;;;;;;;5002793;28;20061;-91
2023/01/04 03:14:27;;;;;;;33.83;19.30;;;;;;;;;;4984348;28;20050;-90
2023/01/04 03:16:55;;;;;;;39.60;19.92;;;;;;;;;;4991046;28;20057;-90
2023/01/04 03:35:21;;;;;;;62.33;23.77;;;;;;;;;;4992920;28;20054;-91
2023/01/04 03:36:12;;;;;;;22.90;19.40;;;;;;;;;;5010289;28;20077;-91
2023/01/04 03:50:01;;;;;;;20.17;17.50;;;;;;;;;;4967686;28;20046;-82
2023/01/04 03:52:31;;;;;;;20.50;18.35;;;;;;;;;;4960371;28;20054;-82
2023/01/04 03:55:01;;;;;;;22.98;18.00;;;;;;;;;;4948088;28;20047;-82
2023/01/04 03:57:29;;;;;;;20.58;18.35;;;;;;;;;;4948283;28;20689;-82
2023/01/04 03:59:59;;;;;;;19.30;17.13;;;;;;;;;;4950188;28;20052;-82
2023/01/04 04:02:29;;;;;;;24.27;19.00;;;;;;;;;;4946463;28;20055;-82
2023/01/04 04:10:35;;;;;;;23.08;16.65;;;;;;;;;;4946617;28;20058;-81
2023/01/04 04:13:04;;;;;;;24.88;19.00;;;;;;;;;;4954430;28;20051;-81
2023/01/04 04:15:35;;;;;;;19.60;17.63;;;;;;;;;;4952806;28;20051;-82
2023/01/04 04:18:05;;;;;;;19.88;17.48;;;;;;;;;;4948370;28;20043;-82
2023/01/04 04:20:34;;;;;;;21.63;18.00;;;;;;;;;;4951717;28;20051;-82
2023/01/04 04:23:05;;;;;;;24.75;18.73;;;;;;;;;;4949464;28;20054;-82
2023/01/04 04:25:32;;;;;;;22.48;18.80;;;;;;;;;;4944478;28;20056;-82
2023/01/04 04:28:00;;;;;;;19.73;17.70;;;;;;;;;;4934632;28;20409;-82
2023/01/04 04:30:27;;;;;;;18.63;16.67;;;;;;;;;;4952394;28;20522;-82
2023/01/04 04:32:56;;;;;;;21.92;16.83;;;;;;;;;;4952418;28;20039;-82
2023/01/04 04:35:24;;;;;;;19.90;17.23;;;;;;;;;;4930895;29;20548;-82
2023/01/04 04:37:51;;;;;;;21.40;17.42;;;;;;;;;;4931255;28;20055;-82
2023/01/04 04:43:01;;;;;;;20.25;17.65;;;;;;;;;;4950429;28;20054;-82
2023/01/04 04:45:28;;;;;;;22.10;17.48;;;;;;;;;;4952671;28;20058;-82
2023/01/04 04:47:55;;;;;;;26.02;16.90;;;;;;;;;;4930747;28;20051;-82
2023/01/04 04:50:22;;;;;;;20.20;15.93;;;;;;;;;;4964676;28;20588;-81
2023/01/04 04:52:52;;;;;;;19.13;17.08;;;;;;;;;;4953198;28;20058;-82
2023/01/04 04:55:23;;;;;;;23.17;18.30;;;;;;;;;;4945375;28;20043;-82
2023/01/04 04:57:50;;;;;;;20.77;15.52;;;;;;;;;;4941539;28;20047;-82
2023/01/04 05:00:19;;;;;;;18.70;15.13;;;;;;;;;;4964984;28;20513;-82
2023/01/04 05:02:49;;;;;;;18.98;15.57;;;;;;;;;;4936370;29;20055;-82
2023/01/04 05:05:16;;;;;;;17.52;13.93;;;;;;;;;;4945772;28;20047;-82
2023/01/04 05:07:46;;;;;;;16.73;14.25;;;;;;;;;;4950163;28;20058;-82
2023/01/04 05:10:15;;;;;;;17.55;15.75;;;;;;;;;;4947455;28;20139;-82
2023/01/04 05:13:00;;;;;;;18.67;15.50;;;;;;;;;;4948420;28;20062;-82
2023/01/04 05:15:33;;;;;;;19.52;15.20;;;;;;;;;;4943841;28;20051;-82
2023/01/04 05:18:04;;;;;;;24.30;16.25;;;;;;;;;;4960712;28;20500;-83
2023/01/04 05:20:31;;;;;;;28.45;19.85;;;;;;;;;;4949845;28;20047;-83
2023/01/04 05:22:58;;;;;;;25.20;16.75;;;;;;;;;;4949098;28;20054;-83
2023/01/04 05:25:26;;;;;;;18.83;13.70;;;;;;;;;;4945030;28;20066;-83
2023/01/04 05:27:57;;;;;;;26.08;17.75;;;;;;;;;;4950822;28;20052;-84
2023/01/04 05:33:11;;;;;;;17.30;12.93;;;;;;;;;;4945396;28;20043;-83
2023/01/04 05:35:38;;;;;;;25.92;18.77;;;;;;;;;;4950090;28;20047;-82
2023/01/04 05:38:06;;;;;;;21.30;16.23;;;;;;;;;;4950757;28;20063;-82
2023/01/04 05:40:38;;;;;;;20.48;15.95;;;;;;;;;;4949402;28;20704;-82
2023/01/04 05:43:07;;;;;;;15.95;13.10;;;;;;;;;;4941305;28;20059;-83
2023/01/04 05:45:34;;;;;;;17.17;15.13;;;;;;;;;;4938170;28;20051;-82
2023/01/04 05:48:02;;;;;;;17.15;14.07;;;;;;;;;;4938515;28;20070;-83
2023/01/04 05:50:31;;;;;;;19.00;13.60;;;;;;;;;;4934305;28;20051;-82
2023/01/04 05:53:04;;;;;;;16.73;12.60;;;;;;;;;;4950906;28;20386;-82
2023/01/04 05:55:32;;;;;;;17.50;11.55;;;;;;;;;;4919503;28;20055;-83
2023/01/04 05:57:59;;;;;;;16.70;13.88;;;;;;;;;;4938350;28;20039;-83
2023/01/04 06:00:28;;;;;;;16.52;13.93;;;;;;;;;;4930602;28;20055;-83
2023/01/04 06:02:55;;;;;;;18.75;13.55;;;;;;;;;;4938521;28;21511;-83
2023/01/04 06:05:23;;;;;;;15.52;13.68;;;;;;;;;;4918771;28;20043;-82
2023/01/04 06:07:51;;;;;;;17.13;14.98;;;;;;;;;;4938548;28;20044;-82
2023/01/04 06:10:21;;;;;;;14.75;10.48;;;;;;;;;;4953722;28;20051;-82
2023/01/04 06:12:48;;;;;;;18.55;14.57;;;;;;;;;;4937462;28;20047;-83
2023/01/04 06:15:18;;;;;;;13.98;12.35;;;;;;;;;;4936238;28;20063;-82
2023/01/04 06:17:46;;;;;;;19.48;13.52;;;;;;;;;;4937124;28;20517;-83
2023/01/04 06:20:13;;;;;;;17.98;13.10;;;;;;;;;;4936711;28;20386;-82
2023/01/04 06:22:41;;;;;;;17.00;12.55;;;;;;;;;;4945815;28;20047;-82
2023/01/04 06:25:11;;;;;;;19.38;14.68;;;;;;;;;;4953822;29;20047;-83
2023/01/04 06:27:43;;;;;;;24.23;16.08;;;;;;;;;;4953086;29;20074;-82
2023/01/04 06:30:10;;;;;;;18.38;12.88;;;;;;;;;;4953720;28;20405;-82
2023/01/04 06:32:40;;;;;;;21.33;15.50;;;;;;;;;;4952756;29;20114;-83
2023/01/04 06:35:09;;;;;;;17.98;13.40;;;;;;;;;;4952577;29;20058;-83
2023/01/04 06:37:39;;;;;;;19.40;13.05;;;;;;;;;;4936710;28;20055;-83
2023/01/04 06:40:08;;;;;;;18.95;13.52;;;;;;;;;;4939104;28;20059;-83
2023/01/04 06:42:44;;;;;;;20.95;14.93;;;;;;;;;;4920790;28;20059;-83
2023/01/04 06:45:12;;;;;;;20.83;14.82;;;;;;;;;;4936700;28;20043;-83
2023/01/04 06:47:41;;;;;;;19.67;15.00;;;;;;;;;;4933144;28;20052;-83
2023/01/04 06:50:10;;;;;;;21.30;16.85;;;;;;;;;;4951528;28;20524;-83
2023/01/04 06:52:38;;;;;;;20.58;18.02;;;;;;;;;;4941258;28;20123;-83
2023/01/04 06:55:09;;;;;;;17.83;15.57;;;;;;;;;;4943699;28;20409;-83
2023/01/04 06:57:39;;;;;;;21.52;15.70;;;;;;;;;;4963694;28;20409;-83
2023/01/04 07:00:07;;;;;;;20.83;16.27;;;;;;;;;;4955391;28;20409;-83
2023/01/04 07:02:37;;;;;;;23.13;17.58;;;;;;;;;;4947564;28;20077;-83
2023/01/04 07:05:05;;;;;;;19.00;14.88;;;;;;;;;;4952255;28;20043;-83
2023/01/04 07:07:34;;;;;;;26.50;17.45;;;;;;;;;;4964104;28;20051;-83
2023/01/04 07:10:02;;;;;;;17.83;15.93;;;;;;;;;;4951838;28;20062;-83
2023/01/04 07:12:29;;;;;;;18.48;15.02;;;;;;;;;;4951734;28;20040;-83
2023/01/04 07:14:59;;;;;;;20.63;14.73;;;;;;;;;;4951615;28;20050;-83
2023/01/04 07:17:26;;;;;;;19.67;15.95;;;;;;;;;;4951552;28;20042;-82
2023/01/04 07:19:56;;;;;;;18.95;16.92;;;;;;;;;;4950675;28;21807;-82
2023/01/04 07:22:25;;;;;;;28.23;17.17;;;;;;;;;;4945632;28;20047;-83
2023/01/04 07:24:54;;;;;;;16.45;14.75;;;;;;;;;;4952328;28;20059;-82
2023/01/04 07:27:21;;;;;;;15.95;14.27;;;;;;;;;;4949898;28;20047;-82
2023/01/04 07:29:49;;;;;;;18.52;15.80;;;;;;;;;;4952062;28;20055;-83
2023/01/04 07:32:16;;;;;;;20.58;15.93;;;;;;;;;;4951400;28;20047;-82
2023/01/04 07:34:46;;;;;;;20.58;15.07;;;;;;;;;;4951441;28;20058;-82
2023/01/04 07:37:16;;;;;;;18.05;14.32;;;;;;;;;;4949699;28;20054;-83
2023/01/04 07:39:44;;;;;;;25.17;17.60;;;;;;;;;;4951728;28;20054;-82
2023/01/04 07:42:13;;;;;;;16.60;14.07;;;;;;;;;;4943615;28;20047;-83
2023/01/04 07:44:43;;;;;;;22.80;16.48;;;;;;;;;;4940743;28;20436;-82
2023/01/04 07:47:11;;;;;;;23.30;17.60;;;;;;;;;;4950811;28;20051;-83
2023/01/04 07:49:38;;;;;;;20.63;15.52;;;;;;;;;;4932164;28;20132;-82
2023/01/04 07:52:05;;;;;;;22.52;16.77;;;;;;;;;;4944342;28;20050;-83
2023/01/04 07:54:33;;;;;;;19.45;16.27;;;;;;;;;;4938274;28;20046;-82
2023/01/04 07:57:02;;;;;;;25.90;18.15;;;;;;;;;;4945349;28;20054;-82
2023/01/04 07:59:31;;;;;;;23.45;15.45;;;;;;;;;;4943480;28;20043;-82
2023/01/04 08:02:00;;;;;;;18.77;15.77;;;;;;;;;;4949464;28;20057;-82
2023/01/04 08:04:28;;;;;;;15.15;13.35;;;;;;;;;;4947796;28;20059;-82
2023/01/04 08:06:55;;;;;;;19.63;13.65;;;;;;;;;;4952708;28;20059;-82
2023/01/04 08:09:22;;;;;;;19.98;15.07;;;;;;;;;;4951235;28;20047;-82
2023/01/04 08:11:52;;;;;;;18.25;14.25;;;;;;;;;;4953909;28;20097;-82
2023/01/04 08:14:19;;;;;;;21.20;15.55;;;;;;;;;;4951577;28;20507;-83
2023/01/04 08:16:50;;;;;;;38.60;31.35;;;;;;;;;;4947228;28;20055;-82
2023/01/04 08:19:19;;;;;;;19.23;14.98;;;;;;;;;;4944726;28;20051;-82
2023/01/04 08:21:51;;;;;;;16.92;14.57;;;;;;;;;;4953340;28;20051;-82
2023/01/04 08:24:21;;;;;;;16.45;13.57;;;;;;;;;;4946616;28;20504;-82
2023/01/04 08:26:51;;;;;;;19.75;13.88;;;;;;;;;;4966633;28;20035;-83
2023/01/04 08:29:18;;;;;;;16.23;14.10;;;;;;;;;;4950186;28;20582;-82
2023/01/04 08:31:45;;;;;;;22.30;16.35;;;;;;;;;;4948232;28;20047;-82
2023/01/04 08:34:14;;;;;;;20.50;15.73;;;;;;;;;;4949314;28;20036;-82
2023/01/04 08:36:47;;;;;;;19.63;15.90;;;;;;;;;;4949646;28;20051;-82
2023/01/04 08:39:14;;;;;;;19.37;16.87;;;;;;;;;;4945602;28;20051;-83
2023/01/04 08:41:51;;;;;;;15.05;13.45;;;;;;;;;;4943932;28;20066;-83
2023/01/04 08:44:22;;;;;;;16.77;15.02;;;;;;;;;;4949920;28;20035;-82
2023/01/04 08:46:52;;;;;;;19.33;14.27;;;;;;;;;;4944506;28;20068;-82
2023/01/04 08:49:22;;;;;;;21.42;15.43;;;;;;;;;;4952201;28;20071;-82
2023/01/04 08:51:52;;;;;;;20.77;14.35;;;;;;;;;;4947237;28;20039;-82
2023/01/04 08:54:22;;;;;;;18.17;15.57;;;;;;;;;;4949845;29;20505;-82
2023/01/04 08:56:49;;;;;;;14.15;12.60;;;;;;;;;;4965983;28;20053;-82
2023/01/04 08:59:17;;;;;;;35.42;16.27;;;;;;;;;;4948516;28;20489;-82
2023/01/04 09:01:44;;;;;;;18.38;14.35;;;;;;;;;;4950669;28;20074;-82
2023/01/04 09:04:14;;;;;;;18.30;13.63;;;;;;;;;;4948029;28;20501;-82
2023/01/04 09:06:43;;;;;;;16.75;12.93;;;;;;;;;;4936473;29;20047;-82
2023/01/04 09:09:10;;;;;;;14.50;11.85;;;;;;;;;;4950432;28;20112;-81
2023/01/04 09:11:39;;;;;;;16.20;12.27;;;;;;;;;;4952515;28;20039;-82
2023/01/04 09:14:12;;;;;;;15.18;13.57;;;;;;;;;;4932661;28;20055;-82
2023/01/04 09:16:40;;;;;;;21.20;12.60;;;;;;;;;;4950907;28;20050;-82
2023/01/04 09:19:07;;;;;;;22.27;17.92;;;;;;;;;;4951677;28;20047;-82
2023/01/04 09:21:35;;;;;;;25.55;20.10;;;;;;;;;;4950615;28;20425;-82
2023/01/04 09:24:06;;;;;;;20.25;17.95;;;;;;;;;;4949988;28;20501;-83
2023/01/04 09:26:36;;;;;;;20.27;15.63;;;;;;;;;;4948049;28;20452;-82
2023/01/04 09:29:04;;;;;;;21.42;16.58;;;;;;;;;;4933036;28;20054;-82
2023/01/04 09:31:31;;;;;;;15.52;13.40;;;;;;;;;;4946525;28;20054;-82
2023/01/04 09:34:00;;;;;;;17.23;14.57;;;;;;;;;;4945609;28;20051;-83
2023/01/04 09:36:28;;;;;;;16.05;14.35;;;;;;;;;;4950110;28;20050;-83
2023/01/04 09:38:55;;;;;;;23.02;16.35;;;;;;;;;;4950256;28;20062;-83
2023/01/04 09:41:27;;;;;;;18.30;15.38;;;;;;;;;;4950543;28;20078;-80
2023/01/04 10:17:40;;;;;;;3.03;2.30;;;;;;;;;;5051744;28;20044;-91
2023/01/04 10:20:32;;;;;;;3.30;2.67;;;;;;;;;;5017284;28;20068;-91
2023/01/04 10:23:09;;;;;;;5.18;3.25;;;;;;;;;;5024363;28;20060;-91
2023/01/04 10:25:42;;;;;;;2.72;1.80;;;;;;;;;;5034070;28;20063;-91
2023/01/04 10:28:45;;;;;;;2.95;1.85;;;;;;;;;;5025072;28;20048;-91
2023/01/04 10:31:17;;;;;;;6.40;2.95;;;;;;;;;;5005671;28;20067;-90
2023/01/04 10:34:22;;;;;;;14.43;4.35;;;;;;;;;;5039210;28;20048;-91
2023/01/04 10:36:54;;;;;;;;;;;;;;;;;;5017287;28;20424;-91
2023/01/04 10:39:22;;;;;;;5.60;2.58;;;;;;;;;;5052169;28;19942;-90
2023/01/04 10:41:57;;;;;;;11.43;4.50;;;;;;;;;;5036617;28;20044;-91
2023/01/04 10:44:36;;;;;;;8.77;3.30;;;;;;;;;;5038156;28;20067;-91
2023/01/04 10:47:17;;;;;;;4.13;3.20;;;;;;;;;;5036555;28;20091;-91
2023/01/04 10:49:52;;;;;;;1.73;1.50;;;;;;;;;;5030668;28;20045;-91
2023/01/04 10:52:28;;;;;;;3.60;2.17;;;;;;;;;;5016348;28;20129;-91
2023/01/04 10:55:00;;;;;;;2.35;1.48;;;;;;;;;;5042082;28;20525;-91
2023/01/04 10:57:34;;;;;;;3.35;1.95;;;;;;;;;;5022318;28;20401;-89
2023/01/04 11:00:10;;;;;;;1.25;1.10;;;;;;;;;;5054267;28;20052;-91
2023/01/04 11:03:14;;;;;;;2.28;1.30;;;;;;;;;;5050759;28;20070;-91
2023/01/04 11:05:49;;;;;;;1.63;1.20;;;;;;;;;;5034586;28;20071;-91
2023/01/04 11:08:29;;;;;;;1.95;1.23;;;;;;;;;;5047402;28;20055;-91
2023/01/04 11:11:00;;;;;;;1.65;1.00;;;;;;;;;;5048909;28;20045;-91
2023/01/04 15:51:05;;;;;;;;;;;;;;;;;;;;;
2023/01/04 15:54:36;;;;;;;1.35;1.20;;;;;;;;;;4963898;28;20046;-82
2023/01/04 15:57:03;;;;;;;1.35;0.82;;;;;;;;;;4972816;28;21907;-83
2023/01/04 15:59:31;;;;;;;1.63;0.70;;;;;;;;;;4989262;28;20061;-83
2023/01/04 16:02:01;;;;;;;1.85;1.15;;;;;;;;;;4972769;28;20053;-83
2023/01/04 16:04:29;;;;;;;1.92;1.67;;;;;;;;;;4986934;28;20042;-83
2023/01/04 16:06:56;;;;;;;3.80;2.20;;;;;;;;;;4959449;28;20057;-83
2023/01/04 16:09:25;;;;;;;1.45;1.35;;;;;;;;;;4976083;28;20046;-84
2023/01/04 16:14:41;;;;;;;2.50;1.88;;;;;;;;;;4970503;28;20050;-84
2023/01/04 16:17:09;;;;;;;2.20;1.63;;;;;;;;;;4986044;28;20049;-84
2023/01/04 16:19:36;;;;;;;4.13;1.60;;;;;;;;;;4988662;28;20511;-84
2023/01/04 16:22:06;;;;;;;1.13;1.02;;;;;;;;;;4998087;28;20054;-83
2023/01/04 16:24:36;;;;;;;2.58;0.95;;;;;;;;;;5003060;28;20059;-83
2023/01/04 16:27:04;;;;;;;4.00;1.83;;;;;;;;;;5001589;28;20042;-83
2023/01/04 16:29:31;;;;;;;1.75;1.10;;;;;;;;;;4985248;28;20042;-83
2023/01/04 16:31:58;;;;;;;1.83;1.05;;;;;;;;;;5017408;28;20048;-83
2023/01/04 16:34:26;;;;;;;1.48;1.27;;;;;;;;;;5000508;28;20030;-83
2023/01/04 16:36:54;;;;;;;2.35;1.75;;;;;;;;;;5013941;28;20096;-83
2023/01/04 16:39:22;;;;;;;1.33;0.93;;;;;;;;;;4977093;28;20045;-87
2023/01/04 16:41:53;;;;;;;1.55;1.40;;;;;;;;;;4988666;28;20051;-83
2023/01/04 16:44:24;;;;;;;1.27;1.10;;;;;;;;;;4966486;28;20073;-83
2023/01/04 16:46:51;;;;;;;1.92;0.93;;;;;;;;;;4967504;28;20069;-83
2023/01/04 16:49:18;;;;;;;10.20;1.30;;;;;;;;;;4968158;28;20054;-82
2023/01/04 16:51:46;;;;;;;6.35;1.40;;;;;;;;;;4988657;28;20058;-82
2023/01/04 16:54:18;;;;;;;3.20;1.10;;;;;;;;;;4969964;28;20054;-83
2023/01/04 16:56:47;;;;;;;1.73;1.13;;;;;;;;;;4989259;28;20047;-83
2023/01/04 16:59:19;;;;;;;1.30;0.93;;;;;;;;;;4983880;28;20330;-83
2023/01/04 17:01:49;;;;;;;2.17;1.10;;;;;;;;;;4988380;28;20058;-83
2023/01/04 17:04:16;;;;;;;1.80;1.20;;;;;;;;;;4993713;28;20432;-83
2023/01/04 17:06:46;;;;;;;3.03;1.77;;;;;;;;;;4991478;28;20054;-82
2023/01/04 17:09:18;;;;;;;2.30;1.25;;;;;;;;;;4995548;28;20073;-83
2023/01/04 17:11:55;;;;;;;3.28;1.08;;;;;;;;;;4992576;28;20046;-83
2023/01/04 17:14:25;;;;;;;1.40;0.98;;;;;;;;;;4991900;28;20038;-83
2023/01/04 17:16:52;;;;;;;4.72;1.73;;;;;;;;;;4969351;28;20065;-83
2023/01/04 17:19:22;;;;;;;3.45;2.03;;;;;;;;;;4981196;28;20583;-83
2023/01/04 17:21:52;;;;;;;1.98;1.40;;;;;;;;;;4982269;28;20054;-83
2023/01/04 17:24:19;;;;;;;1.88;1.10;;;;;;;;;;4964617;28;20058;-82
2023/01/04 17:26:54;;;;;;;1.77;1.30;;;;;;;;;;4968388;28;20057;-83
2023/01/04 17:29:22;;;;;;;3.60;2.72;;;;;;;;;;4944190;28;20043;-83
2023/01/04 17:31:53;;;;;;;1.55;1.15;;;;;;;;;;4984992;28;20452;-82
2023/01/04 17:34:20;;;;;;;2.25;1.80;;;;;;;;;;4997363;28;20049;-83
2023/01/04 17:36:48;;;;;;;1.75;1.02;;;;;;;;;;4984194;28;20051;-83
2023/01/04 17:39:15;;;;;;;3.00;1.23;;;;;;;;;;4968022;28;20061;-82
2023/01/04 17:41:47;;;;;;;3.17;1.52;;;;;;;;;;4951097;28;20053;-83
2023/01/04 17:44:14;;;;;;;2.95;1.15;;;;;;;;;;4949837;28;20046;-83
2023/01/04 17:46:44;;;;;;;1.30;0.98;;;;;;;;;;4968076;28;20065;-83
2023/01/04 17:49:12;;;;;;;2.00;1.23;;;;;;;;;;4966739;28;20053;-83
2023/01/04 17:51:42;;;;;;;1.98;1.50;;;;;;;;;;4962779;28;20500;-83
2023/01/04 17:54:10;;;;;;;1.33;1.17;;;;;;;;;;4952612;28;20576;-83
2023/01/04 17:56:38;;;;;;;1.70;1.27;;;;;;;;;;4988489;28;20049;-83
2023/01/04 17:59:06;;;;;;;2.08;1.45;;;;;;;;;;4992483;28;20034;-83
2023/01/04 18:01:34;;;;;;;1.70;1.23;;;;;;;;;;4987666;28;20046;-83
2023/01/04 18:04:02;;;;;;;2.08;1.40;;;;;;;;;;4957818;28;20046;-83
2023/01/04 18:06:35;;;;;;;1.95;1.27;;;;;;;;;;4989062;28;20397;-84
2023/01/04 18:09:06;;;;;;;3.30;3.00;;;;;;;;;;4986787;28;20050;-82
2023/01/04 18:11:34;;;;;;;1.80;1.50;;;;;;;;;;4957815;28;20050;-83
2023/01/04 18:14:04;;;;;;;2.45;1.80;;;;;;;;;;4956242;28;20050;-82
2023/01/04 18:16:54;;;;;;;2.95;1.80;;;;;;;;;;4956231;28;20062;-83
2023/01/04 18:19:21;;;;;;;2.05;1.17;;;;;;;;;;4977944;28;20049;-83
2023/01/04 18:21:50;;;;;;;1.63;1.27;;;;;;;;;;5004282;28;20050;-83
2023/01/04 18:24:19;;;;;;;2.55;1.20;;;;;;;;;;4981408;28;20054;-83
2023/01/04 18:26:49;;;;;;;1.75;1.60;;;;;;;;;;4979964;28;20050;-83
2023/01/04 18:29:19;;;;;;;5.95;1.70;;;;;;;;;;4988620;28;20051;-83
2023/01/04 18:31:46;;;;;;;4.05;3.45;;;;;;;;;;4990551;28;20480;-83
2023/01/04 18:34:14;;;;;;;5.38;2.97;;;;;;;;;;4950198;28;20053;-83
2023/01/04 18:36:41;;;;;;;4.07;2.42;;;;;;;;;;4980356;28;20397;-83
2023/01/04 18:39:11;;;;;;;6.22;3.65;;;;;;;;;;4963503;28;20061;-83
2023/01/04 18:41:41;;;;;;;2.65;1.98;;;;;;;;;;4947742;28;20563;-83
2023/01/04 18:44:11;;;;;;;5.97;2.38;;;;;;;;;;4982319;28;20050;-83
2023/01/04 18:46:40;;;;;;;3.55;2.55;;;;;;;;;;4957776;28;20056;-83
2023/01/04 18:49:08;;;;;;;4.40;2.22;;;;;;;;;;4982816;28;20050;-83
2023/01/04 18:51:35;;;;;;;3.65;1.85;;;;;;;;;;4964048;28;20515;-83
2023/01/04 18:54:05;;;;;;;1.75;1.65;;;;;;;;;;4961985;28;20077;-83
2023/01/04 18:56:34;;;;;;;2.35;2.00;;;;;;;;;;4944629;28;20424;-83
2023/01/04 18:59:05;;;;;;;4.70;2.92;;;;;;;;;;4965609;28;20038;-82
2023/01/04 19:01:34;;;;;;;5.95;2.17;;;;;;;;;;4964384;28;20061;-82
2023/01/04 19:04:03;;;;;;;1.80;1.67;;;;;;;;;;4962154;28;20610;-82
2023/01/04 19:06:30;;;;;;;1.95;1.75;;;;;;;;;;4980691;28;20065;-83
2023/01/04 19:08:58;;;;;;;2.83;1.80;;;;;;;;;;4963644;28;20043;-83
2023/01/04 19:11:25;;;;;;;2.28;1.95;;;;;;;;;;4982879;28;20054;-83
2023/01/04 19:13:54;;;;;;;2.60;2.03;;;;;;;;;;4963479;28;20050;-84
2023/01/04 19:16:22;;;;;;;3.03;2.10;;;;;;;;;;4943057;28;20077;-83
2023/01/04 19:18:52;;;;;;;2.50;2.22;;;;;;;;;;4970603;28;20045;-83
2023/01/04 19:21:21;;;;;;;6.45;2.20;;;;;;;;;;4970322;28;20057;-83
2023/01/04 19:23:51;;;;;;;2.40;2.15;;;;;;;;;;4973098;28;20059;-84
2023/01/04 19:26:21;;;;;;;5.25;2.38;;;;;;;;;;4954492;28;20061;-83
2023/01/04 19:28:49;;;;;;;2.45;2.10;;;;;;;;;;4941165;28;20062;-83
2023/01/04 19:31:19;;;;;;;2.50;2.00;;;;;;;;;;4954159;28;20507;-83
2023/01/04 19:33:49;;;;;;;2.55;2.35;;;;;;;;;;4979425;28;20050;-83
2023/01/04 19:36:18;;;;;;;3.10;2.80;;;;;;;;;;4961160;28;20319;-83
2023/01/04 19:38:48;;;;;;;8.95;2.40;;;;;;;;;;4963834;28;20057;-82
2023/01/04 19:41:21;;;;;;;2.83;2.20;;;;;;;;;;4979060;28;20050;-83
2023/01/04 19:43:51;;;;;;;5.05;2.22;;;;;;;;;;4980452;28;20053;-83
2023/01/04 19:46:22;;;;;;;3.60;2.60;;;;;;;;;;4946195;28;20054;-83
2023/01/04 19:48:52;;;;;;;2.90;2.08;;;;;;;;;;4981905;28;20054;-83
2023/01/04 19:51:19;;;;;;;2.33;2.03;;;;;;;;;;4981485;28;22412;-83
2023/01/04 19:53:48;;;;;;;2.17;1.70;;;;;;;;;;4947073;28;20054;-83
2023/01/04 19:56:16;;;;;;;2.53;2.05;;;;;;;;;;4977197;28;20270;-83
2023/01/04 19:58:45;;;;;;;2.60;1.98;;;;;;;;;;4946497;28;20049;-83
2023/01/04 20:01:13;;;;;;;2.70;1.95;;;;;;;;;;4983437;28;20416;-83
2023/01/04 20:03:42;;;;;;;2.22;1.85;;;;;;;;;;4961539;28;20302;-83
2023/01/04 20:06:13;;;;;;;3.17;1.75;;;;;;;;;;4975659;28;20504;-83
2023/01/04 20:08:41;;;;;;;2.13;1.60;;;;;;;;;;4984928;28;20042;-83
2023/01/04 20:11:08;;;;;;;2.47;1.92;;;;;;;;;;4993297;28;20061;-83
2023/01/04 20:13:36;;;;;;;3.10;1.90;;;;;;;;;;4984179;28;20053;-83
2023/01/04 20:16:05;;;;;;;2.90;2.10;;;;;;;;;;4980201;28;20051;-83
2023/01/04 20:18:33;;;;;;;2.00;1.80;;;;;;;;;;4999252;28;20042;-83
2023/01/04 20:21:09;;;;;;;5.60;3.33;;;;;;;;;;4995504;28;20042;-83
2023/01/04 20:23:37;;;;;;;4.75;2.50;;;;;;;;;;4999091;28;20061;-83
2023/01/04 20:26:08;;;;;;;4.68;2.97;;;;;;;;;;4996080;28;20046;-83
2023/01/04 20:28:37;;;;;;;6.30;2.72;;;;;;;;;;4992358;28;20045;-83
2023/01/04 20:31:08;;;;;;;7.07;3.08;;;;;;;;;;4962115;28;20053;-83
2023/01/04 20:33:35;;;;;;;4.63;2.55;;;;;;;;;;4977925;28;20421;-83
2023/01/04 20:36:08;;;;;;;3.30;1.90;;;;;;;;;;4976496;28;20049;-83
2023/01/04 20:38:37;;;;;;;5.25;2.88;;;;;;;;;;4950201;28;20051;-83
2023/01/04 20:41:11;;;;;;;;;;;;;;;;;;4993256;28;20045;-83
2023/01/04 20:43:39;;;;;;;2.25;1.98;;;;;;;;;;4970110;28;19929;-83
2023/01/04 20:46:11;;;;;;;2.45;1.88;;;;;;;;;;4964237;28;20062;-83
2023/01/04 20:48:39;;;;;;;2.75;1.85;;;;;;;;;;4983495;28;20050;-83